Time;durP1;ratioP1;P1;durP2;ratioP2;P2;SDS_P1;SDS_P2;PMS_P1;PMS_P2;Temp;Humidity;BMP_temperature;BMP_pressure;BME280_temperature;BME280_humidity;BME280_pressure;Samples;Min_cycle;Max_cycle;Signal;HPM_P1;HPM_P2
2020/12/23 00:01:41;;;;;;;0.22;0.22;;;10.30;99.90;;;;;;5096708;28;20028;-94
2020/12/23 00:04:07;;;;;;;0.10;0.10;;;10.20;99.90;;;;;;5096838;28;20103;-95
2020/12/23 00:06:34;;;;;;;0.40;0.28;;;10.20;99.90;;;;;;5096052;28;20480;-95
2020/12/23 00:09:03;;;;;;;0.22;0.22;;;10.40;99.90;;;;;;5115103;28;20068;-95
2020/12/23 00:11:29;;;;;;;0.30;0.30;;;10.50;99.90;;;;;;5114604;28;20032;-96
2020/12/23 00:13:54;;;;;;;0.10;0.10;;;10.40;99.90;;;;;;5097443;28;20507;-95
2020/12/23 00:16:20;;;;;;;0.10;0.10;;;10.40;99.90;;;;;;5097686;28;20039;-94
2020/12/23 00:18:46;;;;;;;0.10;0.10;;;10.50;99.90;;;;;;5098190;28;20055;-95
2020/12/23 00:21:12;;;;;;;4.07;2.08;;;10.50;99.90;;;;;;5099191;28;20046;-95
2020/12/23 00:23:38;;;;;;;0.25;0.25;;;10.40;99.90;;;;;;5102405;28;20026;-95
2020/12/23 00:26:08;;;;;;;0.20;0.20;;;10.50;99.90;;;;;;5102435;28;20019;-95
2020/12/23 00:28:34;;;;;;;0.20;0.20;;;10.40;99.90;;;;;;5102162;28;20110;-95
2020/12/23 00:31:01;;;;;;;0.30;0.30;;;10.40;99.90;;;;;;5119444;28;20024;-96
2020/12/23 00:33:26;;;;;;;0.25;0.20;;;10.30;99.90;;;;;;5122146;28;20023;-96
2020/12/23 00:35:53;;;;;;;0.10;0.10;;;10.20;99.90;;;;;;5106241;28;20388;-95
2020/12/23 00:56:28;;;;;;;0.10;0.10;;;10.90;99.90;;;;;;5331686;22;20053;-96
2020/12/23 00:58:55;;;;;;;0.10;0.10;;;10.40;99.90;;;;;;5036147;28;20055;-96
2020/12/23 01:01:21;;;;;;;0.20;0.20;;;10.00;99.90;;;;;;5066954;28;20052;-95
2020/12/23 01:03:48;;;;;;;0.10;0.10;;;9.80;99.90;;;;;;5045472;28;20040;-96
2020/12/23 01:06:14;;;;;;;0.10;0.10;;;9.60;99.90;;;;;;5043716;28;20057;-95
2020/12/23 01:28:22;;;;;;;0.10;0.10;;;10.40;67.20;;;;;;5040048;28;20465;-95
2020/12/23 01:30:49;;;;;;;0.40;0.40;;;9.80;73.00;;;;;;5024730;28;20462;-96
2020/12/23 01:33:15;;;;;;;0.10;0.10;;;9.40;94.70;;;;;;5022914;28;20041;-95
2020/12/23 01:35:41;;;;;;;1.40;0.87;;;9.20;99.90;;;;;;5025966;28;20026;-96
2020/12/23 01:38:07;;;;;;;0.20;0.20;;;9.20;99.90;;;;;;5019657;28;20025;-95
2020/12/23 01:40:34;;;;;;;0.20;0.20;;;9.20;99.90;;;;;;5022022;28;20032;-96
2020/12/23 01:48:29;;;;;;;0.10;0.10;;;10.30;73.40;;;;;;5177506;23;20061;-96
2020/12/23 01:50:58;;;;;;;0.10;0.10;;;10.70;50.20;;;;;;5023795;28;20040;-96
2020/12/23 01:53:27;;;;;;;0.10;0.10;;;11.00;35.90;;;;;;5004723;28;20037;-96
2020/12/23 01:55:55;;;;;;;0.10;0.10;;;10.90;29.90;;;;;;5018219;28;20025;-96
2020/12/23 01:58:21;;;;;;;0.10;0.10;;;10.70;26.00;;;;;;5018231;28;20052;-96
2020/12/23 02:00:46;;;;;;;1.10;0.68;;;10.50;24.90;;;;;;5017761;28;20061;-96
2020/12/23 02:03:13;;;;;;;0.47;0.47;;;10.20;26.20;;;;;;5021498;28;20026;-96
2020/12/23 02:05:41;;;;;;;0.10;0.10;;;9.80;29.00;;;;;;5005394;28;20106;-96
2020/12/23 02:08:08;;;;;;;0.17;0.17;;;9.80;37.90;;;;;;5018391;28;20029;-96
2020/12/23 02:10:34;;;;;;;0.10;0.10;;;9.70;53.50;;;;;;5018844;28;20030;-96
2020/12/23 02:13:00;;;;;;;0.10;0.10;;;9.70;50.50;;;;;;5020305;28;20029;-96
2020/12/23 02:15:27;;;;;;;0.10;0.10;;;9.60;57.10;;;;;;5026396;28;20033;-96
2020/12/23 02:17:54;;;;;;;0.25;0.25;;;9.50;58.10;;;;;;5025694;28;20025;-96
2020/12/23 02:20:29;;;;;;;0.40;0.40;;;9.80;46.00;;;;;;5028912;28;20040;-96
2020/12/23 02:22:57;;;;;;;0.10;0.10;;;9.90;36.10;;;;;;5034545;28;20076;-96
2020/12/23 02:25:30;;;;;;;0.28;0.28;;;9.90;57.30;;;;;;5034042;28;20032;-96
2020/12/23 02:28:11;;;;;;;0.20;0.20;;;10.20;46.80;;;;;;5019094;28;20101;-96
2020/12/23 02:30:38;;;;;;;0.10;0.10;;;9.90;50.90;;;;;;5045454;28;20053;-96
2020/12/23 02:33:04;;;;;;;0.10;0.10;;;9.80;52.10;;;;;;5027382;28;20040;-96
2020/12/23 02:35:33;;;;;;;0.20;0.20;;;9.80;55.10;;;;;;5042932;28;20554;-96
2020/12/23 02:41:23;;;;;;;0.10;0.10;;;9.80;53.90;;;;;;5044712;28;20040;-96
2020/12/23 02:43:49;;;;;;;0.10;0.10;;;9.60;55.20;;;;;;5026498;28;20025;-96
2020/12/23 02:46:15;;;;;;;0.10;0.10;;;9.50;56.20;;;;;;5026488;28;20030;-96
2020/12/23 02:48:41;;;;;;;0.10;0.10;;;9.40;61.70;;;;;;5025353;28;20045;-96
2020/12/23 02:51:07;;;;;;;0.10;0.10;;;9.30;66.50;;;;;;5025188;28;20029;-96
2020/12/23 02:53:33;;;;;;;0.10;0.10;;;9.40;55.80;;;;;;5024435;28;20479;-96
2020/12/23 02:56:04;;;;;;;0.10;0.10;;;9.70;40.80;;;;;;5030230;28;20287;-96
2020/12/23 02:58:32;;;;;;;0.10;0.10;;;9.60;42.10;;;;;;5035437;28;20097;-96
2020/12/23 03:00:59;;;;;;;0.20;0.20;;;9.40;52.30;;;;;;5070314;28;20077;-96
2020/12/23 03:03:35;;;;;;;0.25;0.25;;;9.40;56.00;;;;;;5064629;28;20041;-96
2020/12/23 03:06:13;;;;;;;0.10;0.10;;;9.20;59.50;;;;;;5038635;28;20541;-96
2020/12/23 03:08:39;;;;;;;0.30;0.30;;;9.40;65.20;;;;;;5047676;28;20063;-96
2020/12/23 03:15:06;;;;;;;0.20;0.20;;;9.20;77.20;;;;;;5037389;28;20056;-96
2020/12/23 03:17:32;;;;;;;0.10;0.10;;;9.10;83.80;;;;;;5071649;22;20052;-95
2020/12/23 03:23:32;;;;;;;0.30;0.30;;;9.10;93.10;;;;;;5075476;28;20016;-96
2020/12/23 03:29:40;;;;;;;0.68;0.52;;;9.50;73.80;;;;;;5056214;28;20036;-96
2020/12/23 03:32:06;;;;;;;0.10;0.10;;;9.60;60.40;;;;;;5038736;28;20021;-96
2020/12/23 03:34:32;;;;;;;0.22;0.17;;;9.50;57.00;;;;;;5036487;28;20025;-94
2020/12/23 03:36:57;;;;;;;0.10;0.10;;;9.30;63.30;;;;;;5036404;28;20024;-94
2020/12/23 03:39:23;;;;;;;0.10;0.10;;;9.10;77.90;;;;;;5036398;28;20039;-96
2020/12/23 03:41:49;;;;;;;0.10;0.10;;;9.10;89.70;;;;;;5037217;28;20017;-94
2020/12/23 03:44:15;;;;;;;0.20;0.20;;;9.00;97.80;;;;;;5037758;28;20021;-96
2020/12/23 03:54:33;;;;;;;0.20;0.20;;;8.70;99.90;;;;;;5109422;22;20057;-95
2020/12/23 03:56:59;;;;;;;0.20;0.20;;;8.80;99.90;;;;;;5028409;28;20056;-95
2020/12/23 03:59:24;;;;;;;0.43;0.43;;;8.80;99.90;;;;;;5020582;28;20491;-96
2020/12/23 04:01:50;;;;;;;0.20;0.20;;;8.80;99.90;;;;;;5020819;28;20032;-95
2020/12/23 04:04:16;;;;;;;0.20;0.20;;;8.60;99.90;;;;;;5020588;28;20108;-96
2020/12/23 04:06:42;;;;;;;0.10;0.10;;;8.60;99.90;;;;;;5020625;28;20032;-95
2020/12/23 04:09:08;;;;;;;0.10;0.10;;;8.80;99.90;;;;;;5020609;28;20026;-95
2020/12/23 04:11:34;;;;;;;0.10;0.10;;;8.90;99.90;;;;;;5020413;28;20026;-95
2020/12/23 04:14:01;;;;;;;1.15;1.00;;;8.80;99.90;;;;;;5020195;28;20050;-96
2020/12/23 04:16:27;;;;;;;0.10;0.10;;;8.80;99.90;;;;;;5020161;28;20569;-94
2020/12/23 04:18:54;;;;;;;0.10;0.10;;;8.90;99.90;;;;;;5027436;28;20029;-96
2020/12/23 04:21:20;;;;;;;0.10;0.10;;;9.00;99.90;;;;;;5012442;28;20032;-95
2020/12/23 04:23:52;;;;;;;0.10;0.10;;;8.90;99.90;;;;;;5026482;28;20025;-95
2020/12/23 04:26:18;;;;;;;0.57;0.52;;;8.80;99.90;;;;;;5022220;28;20021;-95
2020/12/23 04:28:43;;;;;;;0.20;0.20;;;8.70;99.90;;;;;;5024009;28;20076;-96
2020/12/23 04:31:09;;;;;;;0.20;0.20;;;8.70;99.90;;;;;;5024365;28;20026;-96
2020/12/23 04:33:35;;;;;;;0.10;0.10;;;8.50;99.90;;;;;;5025241;28;20085;-94
2020/12/23 04:36:01;;;;;;;0.10;0.10;;;8.50;99.90;;;;;;5020240;28;20479;-94
2020/12/23 04:38:27;;;;;;;0.10;0.10;;;8.40;99.90;;;;;;5019360;28;20108;-94
2020/12/23 04:40:56;;;;;;;0.10;0.10;;;8.40;99.90;;;;;;5022287;28;20025;-95
2020/12/23 04:43:22;;;;;;;0.10;0.10;;;8.40;99.90;;;;;;5020838;28;20030;-96
2020/12/23 04:45:48;;;;;;;0.10;0.10;;;8.50;99.90;;;;;;5022947;28;20028;-95
2020/12/23 04:48:20;;;;;;;0.17;0.17;;;8.40;99.90;;;;;;5025541;28;20037;-96
2020/12/23 04:50:51;;;;;;;3.20;1.55;;;8.40;99.90;;;;;;5026651;28;20487;-96
2020/12/23 04:53:17;;;;;;;0.10;0.10;;;8.40;99.90;;;;;;5028399;28;20052;-96
2020/12/23 04:55:43;;;;;;;0.10;0.10;;;8.50;99.90;;;;;;5021961;28;20495;-96
2020/12/23 04:58:11;;;;;;;0.10;0.10;;;8.50;99.90;;;;;;5024450;28;20034;-95
2020/12/23 05:33:25;;;;;;;0.43;0.30;;;9.30;99.90;;;;;;4978133;28;20042;-93
2020/12/23 05:35:55;;;;;;;0.10;0.10;;;9.50;92.30;;;;;;4961338;28;20034;-96
2020/12/23 05:38:21;;;;;;;0.20;0.20;;;9.60;73.60;;;;;;4963120;28;20031;-95
2020/12/23 05:40:46;;;;;;;0.10;0.10;;;9.70;53.00;;;;;;4961756;28;20059;-94
2020/12/23 05:43:39;;;;;;;0.10;0.10;;;9.70;34.70;;;;;;4973111;28;20117;-96
2020/12/23 06:04:19;;;;;;;0.10;0.10;;;9.70;1.00;;;;;;4975230;28;20046;-93
2020/12/23 06:06:46;;;;;;;0.20;0.20;;;9.60;1.00;;;;;;4959285;28;20078;-94
2020/12/23 06:09:15;;;;;;;0.10;0.10;;;9.60;1.00;;;;;;4959054;28;20094;-94
2020/12/23 06:11:47;;;;;;;0.10;0.10;;;9.60;1.00;;;;;;4959677;28;20031;-94
2020/12/23 06:14:16;;;;;;;0.20;0.20;;;9.50;1.00;;;;;;4959609;28;20034;-96
2020/12/23 06:16:50;;;;;;;0.10;0.10;;;9.30;1.00;;;;;;4964668;28;20034;-93
2020/12/23 06:22:41;;;;;;;0.40;0.40;;;9.10;1.00;;;;;;4976522;28;20050;-94
2020/12/23 06:25:07;;;;;;;0.10;0.10;;;9.10;1.00;;;;;;4959492;28;20031;-93
2020/12/23 06:27:41;;;;;;;0.10;0.10;;;9.10;1.00;;;;;;4976681;28;20481;-94
2020/12/23 06:30:07;;;;;;;0.43;0.43;;;9.20;1.00;;;;;;4959073;28;20035;-94
2020/12/23 06:32:33;;;;;;;0.10;0.10;;;9.20;1.00;;;;;;4958269;28;20031;-94
2020/12/23 06:35:01;;;;;;;0.10;0.10;;;9.40;1.00;;;;;;4958066;28;20054;-93
2020/12/23 06:37:33;;;;;;;0.10;0.10;;;9.30;1.00;;;;;;4959773;28;20038;-96
2020/12/23 06:40:06;;;;;;;0.10;0.10;;;9.30;1.00;;;;;;4960909;28;20030;-95
2020/12/23 06:42:32;;;;;;;0.20;0.20;;;9.60;1.00;;;;;;4958814;28;20022;-94
2020/12/23 06:45:04;;;;;;;0.10;0.10;;;10.00;1.00;;;;;;4960348;28;20030;-94
2020/12/23 06:47:31;;;;;;;0.10;0.10;;;10.50;1.00;;;;;;4954717;28;20079;-95
2020/12/23 06:50:12;;;;;;;0.15;0.15;;;11.00;99.90;;;;;;4959133;28;20030;-94
2020/12/23 06:52:40;;;;;;;0.10;0.10;;;10.70;99.90;;;;;;4958350;28;20468;-95
2020/12/23 06:55:14;;;;;;;0.10;0.10;;;10.50;99.90;;;;;;4958890;28;20031;-95
2020/12/23 06:57:40;;;;;;;0.10;0.10;;;10.40;99.90;;;;;;4959770;28;20086;-94
2020/12/23 07:00:08;;;;;;;0.10;0.10;;;10.30;99.90;;;;;;4958842;28;20031;-95
2020/12/23 07:02:46;;;;;;;0.20;0.20;;;10.20;99.90;;;;;;4958457;28;20047;-94
2020/12/23 07:05:14;;;;;;;0.10;0.10;;;10.20;99.90;;;;;;4959241;28;20471;-94
2020/12/23 07:07:41;;;;;;;0.40;0.40;;;10.00;99.90;;;;;;4958263;28;20051;-93
2020/12/23 07:10:19;;;;;;;0.10;0.10;;;9.70;99.90;;;;;;4957297;28;20357;-93
2020/12/23 07:12:46;;;;;;;0.10;0.10;;;9.30;99.90;;;;;;4956428;28;20031;-92
2020/12/23 07:15:13;;;;;;;0.10;0.10;;;9.10;99.90;;;;;;4955697;28;20062;-92
2020/12/23 07:17:40;;;;;;;;;;;8.80;99.90;;;;;;4957973;28;20078;-92
2020/12/23 07:20:07;;;;;;;0.10;0.10;;;8.70;99.90;;;;;;4957880;28;19909;-93
2020/12/23 07:22:34;;;;;;;0.10;0.10;;;8.70;99.90;;;;;;4958514;28;20023;-92
2020/12/23 07:25:01;;;;;;;0.10;0.10;;;8.60;99.90;;;;;;4956388;28;20027;-92
2020/12/23 07:27:28;;;;;;;0.10;0.10;;;8.70;99.90;;;;;;4955859;28;20131;-94
2020/12/23 07:29:56;;;;;;;0.10;0.10;;;9.00;99.90;;;;;;4973304;28;20034;-90
2020/12/23 07:32:25;;;;;;;9.85;8.82;;;9.20;99.90;;;;;;4957363;28;20034;-93
2020/12/23 07:34:51;;;;;;;20.00;5.43;;;9.30;99.90;;;;;;4957659;28;20030;-93
2020/12/23 07:37:18;;;;;;;1.57;1.47;;;9.80;99.90;;;;;;4957057;28;20027;-91
2020/12/23 07:39:51;;;;;;;1.13;1.05;;;9.60;99.90;;;;;;4957491;28;20094;-94
2020/12/23 07:42:21;;;;;;;0.50;0.50;;;9.50;99.90;;;;;;4957937;28;20151;-95
2020/12/23 07:44:51;;;;;;;0.10;0.10;;;9.50;99.90;;;;;;4957562;28;20027;-93
2020/12/23 07:47:24;;;;;;;0.10;0.10;;;9.30;99.90;;;;;;4957913;28;20492;-93
2020/12/23 07:50:05;;;;;;;0.17;0.17;;;9.30;99.90;;;;;;4958004;28;20540;-94
2020/12/23 07:52:31;;;;;;;0.10;0.10;;;9.30;99.90;;;;;;4958309;28;20034;-94
2020/12/23 07:55:20;;;;;;;0.10;0.10;;;9.50;99.90;;;;;;4957300;28;20034;-91
2020/12/23 07:57:50;;;;;;;0.10;0.10;;;9.50;99.90;;;;;;4967022;28;20456;-92
2020/12/23 08:00:16;;;;;;;1.10;1.10;;;9.60;99.90;;;;;;4956689;28;20019;-89
2020/12/23 08:02:43;;;;;;;0.20;0.20;;;9.70;99.90;;;;;;4955431;28;20051;-93
2020/12/23 08:05:10;;;;;;;1.60;1.17;;;9.80;99.90;;;;;;4956308;28;20042;-92
2020/12/23 08:07:43;;;;;;;1.00;0.95;;;10.00;99.90;;;;;;4957134;28;20027;-92
2020/12/23 08:10:20;;;;;;;0.10;0.10;;;9.90;99.90;;;;;;4954892;28;20041;-90
2020/12/23 08:13:02;;;;;;;0.10;0.10;;;9.80;99.90;;;;;;4953895;28;20023;-91
2020/12/23 08:15:28;;;;;;;0.17;0.17;;;10.00;99.90;;;;;;4946269;29;20039;-90
2020/12/23 08:18:05;;;;;;;2.10;0.68;;;10.00;99.90;;;;;;4948386;28;20027;-92
2020/12/23 08:20:34;;;;;;;0.10;0.10;;;10.00;99.90;;;;;;4955741;28;20035;-89
2020/12/23 08:23:01;;;;;;;0.40;0.38;;;10.10;99.90;;;;;;4954212;28;20455;-91
2020/12/23 08:25:29;;;;;;;0.90;0.80;;;10.30;99.90;;;;;;4946059;29;20031;-91
2020/12/23 08:27:59;;;;;;;0.35;0.35;;;10.60;99.90;;;;;;4963149;28;20043;-89
2020/12/23 08:30:32;;;;;;;1.48;1.38;;;10.80;99.90;;;;;;4951486;28;20397;-89
2020/12/23 08:33:16;;;;;;;1.50;1.40;;;10.90;99.90;;;;;;4951223;28;20039;-89
2020/12/23 08:35:44;;;;;;;0.40;0.40;;;11.10;99.90;;;;;;4969286;28;20113;-89
2020/12/23 08:38:17;;;;;;;2.38;1.73;;;11.10;99.90;;;;;;4969442;28;20037;-88
2020/12/23 08:40:51;;;;;;;2.10;0.93;;;11.10;99.90;;;;;;4968823;28;20038;-89
2020/12/23 08:43:21;;;;;;;4.15;3.95;;;11.10;99.90;;;;;;4972180;28;20023;-89
2020/12/23 08:45:47;;;;;;;3.13;2.83;;;11.20;99.90;;;;;;4955481;28;20585;-89
2020/12/23 08:48:24;;;;;;;0.10;0.10;;;11.20;99.90;;;;;;4958813;28;20632;-89
2020/12/23 08:50:53;;;;;;;0.30;0.30;;;11.30;99.90;;;;;;4963773;28;20034;-89
2020/12/23 08:53:27;;;;;;;0.70;0.70;;;11.30;99.90;;;;;;4955371;28;20037;-88
2020/12/23 08:55:53;;;;;;;0.63;0.63;;;11.50;99.90;;;;;;4972017;28;20031;-88
2020/12/23 08:58:20;;;;;;;0.20;0.20;;;11.60;99.90;;;;;;4971544;28;20042;-89
2020/12/23 09:00:57;;;;;;;0.20;0.20;;;11.50;99.90;;;;;;4984371;28;20484;-89
2020/12/23 09:03:24;;;;;;;0.20;0.20;;;11.50;99.90;;;;;;4972166;28;20121;-88
2020/12/23 09:05:56;;;;;;;1.38;1.25;;;11.60;99.90;;;;;;4954494;28;20030;-89
2020/12/23 09:08:24;;;;;;;1.00;1.00;;;11.60;99.90;;;;;;4970239;28;20019;-89
2020/12/23 09:10:57;;;;;;;3.53;0.63;;;11.50;99.90;;;;;;4953501;28;20034;-88
2020/12/23 09:13:35;;;;;;;0.10;0.10;;;11.50;99.90;;;;;;4972703;28;20026;-89
2020/12/23 09:16:01;;;;;;;0.88;0.88;;;11.50;99.90;;;;;;4953365;28;20040;-88
2020/12/23 09:18:28;;;;;;;1.73;1.05;;;11.30;99.90;;;;;;4950692;28;20109;-88
2020/12/23 09:21:03;;;;;;;0.30;0.30;;;11.30;99.90;;;;;;4946295;28;20104;-88
2020/12/23 09:23:29;;;;;;;0.10;0.10;;;11.40;99.90;;;;;;4966527;28;20742;-88
2020/12/23 09:25:56;;;;;;;0.20;0.20;;;11.20;99.90;;;;;;4967390;28;20113;-89
2020/12/23 09:28:28;;;;;;;;;;;11.20;99.90;;;;;;4946267;28;20031;-88
2020/12/23 09:31:01;;;;;;;0.30;0.30;;;11.20;99.90;;;;;;4951688;28;19921;-88
2020/12/23 09:33:39;;;;;;;1.45;0.68;;;11.20;99.90;;;;;;4953750;28;20489;-89
2020/12/23 09:36:07;;;;;;;0.10;0.10;;;11.30;99.90;;;;;;4957901;28;20038;-88
2020/12/23 09:38:36;;;;;;;0.10;0.10;;;11.60;99.90;;;;;;4958121;28;20033;-88
2020/12/23 09:41:06;;;;;;;0.35;0.35;;;11.80;99.90;;;;;;4976074;28;20022;-90
2020/12/23 09:43:34;;;;;;;0.10;0.10;;;12.00;99.90;;;;;;4956715;28;20031;-87
2020/12/23 09:46:04;;;;;;;0.10;0.10;;;12.10;99.90;;;;;;4973260;28;20085;-89
2020/12/23 09:48:30;;;;;;;2.28;1.25;;;12.30;99.90;;;;;;4970858;28;20027;-87
2020/12/23 09:50:56;;;;;;;4.55;0.45;;;12.20;99.90;;;;;;4963847;28;20514;-89
2020/12/23 09:53:27;;;;;;;3.08;1.63;;;11.90;99.90;;;;;;4973923;28;20059;-88
2020/12/23 09:55:54;;;;;;;3.13;1.30;;;11.60;99.90;;;;;;4945667;28;20034;-88
2020/12/23 09:58:20;;;;;;;1.42;1.15;;;11.40;99.90;;;;;;4970675;28;20034;-88
2020/12/23 10:00:48;;;;;;;0.77;0.77;;;11.60;99.90;;;;;;4957461;28;20041;-89
2020/12/23 10:03:14;;;;;;;0.60;0.60;;;11.60;99.90;;;;;;4959422;28;20057;-87
2020/12/23 10:05:40;;;;;;;5.22;0.75;;;11.70;99.90;;;;;;4945965;28;20031;-89
2020/12/23 10:08:07;;;;;;;0.28;0.28;;;11.70;99.90;;;;;;4951827;28;20105;-89
2020/12/23 10:10:36;;;;;;;0.73;0.73;;;11.80;99.90;;;;;;4965015;28;20425;-88
2020/12/23 10:13:03;;;;;;;0.95;0.95;;;11.80;99.90;;;;;;4953202;28;20668;-88
2020/12/23 10:15:29;;;;;;;0.15;0.15;;;11.40;99.90;;;;;;4969482;28;20034;-88
2020/12/23 10:17:55;;;;;;;4.30;0.67;;;11.50;99.90;;;;;;4968553;28;20416;-89
2020/12/23 10:20:21;;;;;;;1.07;0.97;;;11.30;99.90;;;;;;4967048;28;20063;-88
2020/12/23 10:22:47;;;;;;;4.00;0.80;;;11.10;99.90;;;;;;4952996;28;20069;-92
2020/12/23 10:25:13;;;;;;;1.10;1.10;;;10.90;99.90;;;;;;4950209;28;20099;-87
2020/12/23 10:27:38;;;;;;;0.52;0.52;;;11.00;99.90;;;;;;4963540;28;20015;-87
2020/12/23 10:30:07;;;;;;;0.10;0.10;;;11.10;99.90;;;;;;4952871;28;20031;-87
2020/12/23 10:32:34;;;;;;;0.47;0.47;;;11.50;99.90;;;;;;4951461;28;20034;-87
2020/12/23 10:35:00;;;;;;;1.17;1.17;;;11.80;99.90;;;;;;4967129;28;20531;-88
2020/12/23 10:37:25;;;;;;;5.03;0.45;;;12.20;99.90;;;;;;4965600;28;20019;-89
2020/12/23 10:39:52;;;;;;;0.20;0.20;;;12.20;99.90;;;;;;4954176;28;20086;-88
2020/12/23 10:42:18;;;;;;;0.60;0.60;;;12.20;99.90;;;;;;4971804;28;20014;-87
2020/12/23 10:44:44;;;;;;;0.22;0.22;;;12.00;99.90;;;;;;4950787;28;20037;-88
2020/12/23 10:47:11;;;;;;;0.10;0.10;;;12.10;99.90;;;;;;4942005;28;20388;-88
2020/12/23 10:49:37;;;;;;;0.20;0.20;;;11.90;99.90;;;;;;4960415;28;20031;-88
2020/12/23 10:52:03;;;;;;;0.10;0.10;;;11.70;99.90;;;;;;4950667;28;20033;-89
2020/12/23 10:54:30;;;;;;;0.28;0.28;;;11.60;99.90;;;;;;4951787;28;20034;-88
2020/12/23 10:56:57;;;;;;;0.13;0.13;;;11.70;99.90;;;;;;4979036;28;20105;-91
2020/12/23 10:59:23;;;;;;;0.10;0.10;;;11.40;99.90;;;;;;4976494;28;20038;-89
2020/12/23 11:01:56;;;;;;;1.13;1.05;;;11.10;99.90;;;;;;4983078;28;20034;-91
2020/12/23 11:04:24;;;;;;;0.10;0.10;;;11.10;99.90;;;;;;4971203;28;20031;-89
2020/12/23 11:06:51;;;;;;;0.10;0.10;;;11.20;99.90;;;;;;4969098;28;20065;-91
2020/12/23 11:09:18;;;;;;;0.20;0.20;;;11.20;99.90;;;;;;4954880;28;20042;-91
2020/12/23 11:11:51;;;;;;;0.10;0.10;;;11.30;99.90;;;;;;4957262;28;20481;-90
2020/12/23 11:14:17;;;;;;;0.10;0.10;;;11.30;99.90;;;;;;4949186;28;20024;-90
2020/12/23 11:16:49;;;;;;;0.32;0.32;;;11.30;99.90;;;;;;4977052;28;20027;-88
2020/12/23 11:19:15;;;;;;;0.10;0.10;;;11.00;99.90;;;;;;4972414;28;20082;-89
2020/12/23 11:21:41;;;;;;;0.20;0.20;;;10.80;99.90;;;;;;4948083;28;20058;-91
2020/12/23 11:24:07;;;;;;;0.10;0.10;;;11.00;99.90;;;;;;4969924;28;20268;-92
2020/12/23 11:26:33;;;;;;;0.20;0.20;;;11.10;99.90;;;;;;4963164;28;20389;-92
2020/12/23 11:29:00;;;;;;;0.17;0.17;;;11.30;99.90;;;;;;4967480;28;20274;-91
2020/12/23 11:31:26;;;;;;;9.80;1.95;;;11.20;99.90;;;;;;4969900;28;20274;-92
2020/12/23 11:33:51;;;;;;;13.98;6.38;;;11.30;99.90;;;;;;4956715;28;20034;-90
2020/12/23 11:36:18;;;;;;;8.75;3.85;;;11.40;99.90;;;;;;4968276;28;20400;-92
2020/12/23 11:38:50;;;;;;;8.23;2.67;;;11.30;99.90;;;;;;4956530;28;20530;-91
2020/12/23 11:41:15;;;;;;;4.80;3.50;;;11.30;99.90;;;;;;4956755;28;20039;-93
2020/12/23 11:43:41;;;;;;;6.82;4.22;;;11.30;99.90;;;;;;4968087;28;20044;-92
2020/12/23 11:46:09;;;;;;;3.58;3.25;;;11.30;99.90;;;;;;4984248;28;20022;-91
2020/12/23 11:48:34;;;;;;;;;;;11.30;99.90;;;;;;4964704;28;20023;-91
2020/12/23 11:51:01;;;;;;;2.50;1.83;;;11.30;99.90;;;;;;4956420;28;20398;-92
2020/12/23 11:53:26;;;;;;;1.20;1.20;;;11.30;99.90;;;;;;4970830;28;20078;-92
2020/12/23 11:55:52;;;;;;;13.97;3.43;;;11.30;99.90;;;;;;4967499;28;20030;-92
2020/12/23 11:58:18;;;;;;;7.25;2.65;;;11.40;99.90;;;;;;4956615;28;20118;-92
2020/12/23 12:00:44;;;;;;;1.15;1.15;;;11.40;99.90;;;;;;4956226;28;20074;-92
2020/12/23 12:03:10;;;;;;;10.52;6.18;;;11.50;99.90;;;;;;4956487;28;20050;-92
2020/12/23 12:05:36;;;;;;;6.00;4.85;;;11.70;99.90;;;;;;4938072;29;20114;-91
2020/12/23 12:08:04;;;;;;;3.95;2.55;;;11.80;99.90;;;;;;4937261;29;20066;-92
2020/12/23 12:10:31;;;;;;;1.23;1.13;;;12.00;99.90;;;;;;4937617;29;20031;-92
2020/12/23 12:12:57;;;;;;;0.10;0.10;;;12.20;99.90;;;;;;4937731;29;20055;-92
2020/12/23 12:15:23;;;;;;;0.85;0.73;;;12.30;99.90;;;;;;4937334;29;20031;-92
2020/12/23 12:17:49;;;;;;;0.43;0.43;;;12.30;99.90;;;;;;4946071;29;20028;-92
2020/12/23 12:20:17;;;;;;;0.10;0.10;;;12.50;99.90;;;;;;4960331;28;20086;-91
2020/12/23 12:22:43;;;;;;;2.38;2.03;;;12.50;99.90;;;;;;4960570;28;20023;-91
2020/12/23 12:25:09;;;;;;;3.22;2.38;;;12.50;99.90;;;;;;4942092;29;20042;-93
2020/12/23 12:27:38;;;;;;;4.80;0.93;;;12.60;99.90;;;;;;4944442;28;20114;-92
2020/12/23 12:30:04;;;;;;;0.52;0.52;;;12.60;99.90;;;;;;4944507;28;20034;-91
2020/12/23 12:32:30;;;;;;;0.10;0.10;;;12.50;99.90;;;;;;4948379;29;20035;-91
2020/12/23 12:34:56;;;;;;;0.10;0.10;;;12.70;99.90;;;;;;4967550;28;20033;-91
2020/12/23 12:37:22;;;;;;;2.88;1.38;;;12.70;99.90;;;;;;4960804;28;20038;-91
2020/12/23 12:39:47;;;;;;;0.60;0.60;;;12.40;99.90;;;;;;4949471;28;20078;-92
2020/12/23 12:42:13;;;;;;;3.08;1.83;;;12.20;99.90;;;;;;4960151;28;20019;-92
2020/12/23 12:44:39;;;;;;;0.50;0.50;;;12.40;99.90;;;;;;4960145;28;20370;-92
2020/12/23 12:47:05;;;;;;;0.10;0.10;;;12.40;99.90;;;;;;4960422;28;20025;-92
2020/12/23 12:49:31;;;;;;;0.57;0.57;;;12.40;99.90;;;;;;4960336;28;20030;-93
2020/12/23 12:51:56;;;;;;;1.70;0.97;;;12.40;99.90;;;;;;4960463;28;20030;-92
2020/12/23 12:54:22;;;;;;;0.20;0.20;;;12.60;99.90;;;;;;4960022;28;20034;-92
2020/12/23 12:56:48;;;;;;;0.10;0.10;;;12.50;99.90;;;;;;4960307;28;20117;-92
2020/12/23 12:59:13;;;;;;;0.47;0.47;;;12.50;99.90;;;;;;4959896;28;20027;-93
2020/12/23 13:01:40;;;;;;;0.10;0.10;;;12.40;99.90;;;;;;4945997;29;20023;-92
2020/12/23 13:04:07;;;;;;;0.10;0.10;;;12.30;99.90;;;;;;4958148;28;20055;-92
2020/12/23 13:06:34;;;;;;;;;;;12.40;99.90;;;;;;4968940;28;20018;-90
2020/12/23 13:09:02;;;;;;;0.10;0.10;;;12.50;99.90;;;;;;4978338;28;19905;-92
2020/12/23 13:11:28;;;;;;;0.10;0.10;;;12.60;99.90;;;;;;4978199;28;20043;-91
2020/12/23 13:13:55;;;;;;;0.50;0.50;;;12.60;99.90;;;;;;4959441;28;20173;-92
2020/12/23 13:16:23;;;;;;;;;;;12.70;99.90;;;;;;4960546;28;20093;-91
2020/12/23 13:18:53;;;;;;;0.43;0.43;;;12.80;99.90;;;;;;4959554;28;19916;-91
2020/12/23 13:21:18;;;;;;;0.30;0.30;;;13.00;99.90;;;;;;4959826;28;20054;-92
2020/12/23 13:23:44;;;;;;;0.30;0.30;;;13.10;99.90;;;;;;4959348;28;20400;-92
2020/12/23 13:26:14;;;;;;;0.60;0.52;;;13.00;99.90;;;;;;4958917;28;20034;-91
2020/12/23 13:28:42;;;;;;;0.50;0.50;;;12.50;99.90;;;;;;4962252;28;20023;-92
2020/12/23 13:31:08;;;;;;;0.75;0.65;;;12.50;99.90;;;;;;4973139;28;20034;-91
2020/12/23 13:33:34;;;;;;;0.10;0.10;;;12.70;99.90;;;;;;4978691;28;20420;-91
2020/12/23 13:36:01;;;;;;;0.17;0.13;;;12.80;99.90;;;;;;4966080;28;20567;-92
2020/12/23 13:38:28;;;;;;;0.25;0.25;;;12.50;99.90;;;;;;4959260;28;20519;-91
2020/12/23 13:40:55;;;;;;;0.17;0.17;;;12.50;99.90;;;;;;4958827;28;20034;-92
2020/12/23 13:43:23;;;;;;;0.75;0.75;;;12.70;99.90;;;;;;4959353;28;20485;-91
2020/12/23 13:45:49;;;;;;;0.20;0.20;;;13.00;99.90;;;;;;4959255;28;20031;-92
2020/12/23 13:48:15;;;;;;;0.10;0.10;;;13.20;99.90;;;;;;4958226;28;20023;-92
2020/12/23 13:50:41;;;;;;;0.93;0.30;;;13.30;99.90;;;;;;4973135;28;20122;-92
2020/12/23 13:53:08;;;;;;;0.20;0.20;;;13.00;99.90;;;;;;4978021;28;20030;-91
2020/12/23 13:55:36;;;;;;;0.40;0.40;;;12.90;99.90;;;;;;4978125;28;20554;-92
2020/12/23 13:58:04;;;;;;;2.45;0.65;;;13.00;99.90;;;;;;4969666;28;20035;-92
2020/12/23 14:00:30;;;;;;;0.20;0.20;;;13.30;99.90;;;;;;4958780;28;20026;-92
2020/12/23 14:02:56;;;;;;;0.40;0.40;;;13.20;99.90;;;;;;4965998;28;20054;-92
2020/12/23 14:05:22;;;;;;;2.38;0.60;;;13.40;99.90;;;;;;4961180;28;20297;-93
2020/12/23 14:07:54;;;;;;;0.20;0.20;;;13.70;99.90;;;;;;4958452;28;20075;-91
2020/12/23 14:10:22;;;;;;;0.30;0.30;;;13.60;99.90;;;;;;4957304;28;20122;-92
2020/12/23 14:12:49;;;;;;;1.35;0.95;;;13.50;99.90;;;;;;4963015;28;20027;-91
2020/12/23 14:15:16;;;;;;;0.50;0.30;;;13.30;99.90;;;;;;4958354;28;20042;-92
2020/12/23 14:17:42;;;;;;;;;;;13.20;99.90;;;;;;4958781;28;20038;-92
2020/12/23 14:20:08;;;;;;;0.65;0.65;;;13.00;99.90;;;;;;4958148;28;20275;-92
2020/12/23 14:22:34;;;;;;;1.10;0.73;;;12.70;99.90;;;;;;4958531;28;20045;-92
2020/12/23 14:25:00;;;;;;;0.20;0.20;;;12.40;99.90;;;;;;4971699;28;20026;-91
2020/12/23 14:27:26;;;;;;;0.98;0.80;;;12.20;99.90;;;;;;4978401;28;20029;-91
2020/12/23 14:29:51;;;;;;;0.33;0.33;;;12.10;99.90;;;;;;4994476;28;20113;-93
2020/12/23 14:32:18;;;;;;;1.55;0.45;;;12.10;99.90;;;;;;4959001;28;20089;-92
2020/12/23 14:34:45;;;;;;;0.95;0.40;;;12.00;99.90;;;;;;4977802;28;20027;-93
2020/12/23 14:37:12;;;;;;;0.32;0.32;;;11.90;99.90;;;;;;4978251;28;20132;-92
2020/12/23 14:39:38;;;;;;;0.60;0.60;;;11.70;99.90;;;;;;4971192;28;20082;-92
2020/12/23 14:42:04;;;;;;;0.25;0.25;;;11.70;99.90;;;;;;4958683;28;20057;-91
2020/12/23 14:44:30;;;;;;;0.10;0.10;;;11.70;99.90;;;;;;4958168;28;20026;-93
2020/12/23 14:46:56;;;;;;;0.67;0.60;;;11.60;99.90;;;;;;4957678;28;20034;-92
2020/12/23 14:49:23;;;;;;;1.37;0.67;;;11.60;99.90;;;;;;4966051;28;20047;-92
2020/12/23 14:51:50;;;;;;;;;;;11.70;99.90;;;;;;4962978;28;20027;-92
2020/12/23 14:54:16;;;;;;;;;;;11.60;99.90;;;;;;4977543;28;20016;-92
2020/12/23 14:56:42;;;;;;;0.30;0.30;;;11.60;99.90;;;;;;4964518;28;19917;-92